createdAt,value
2017-12-11T00:02:00.740Z,97.10
2017-12-11T00:04:28.408Z,96.98
2017-12-11T00:06:56.003Z,97.00
2017-12-11T00:09:23.571Z,96.81
2017-12-11T00:11:51.133Z,96.61
2017-12-11T00:14:18.685Z,96.57
2017-12-11T00:16:46.348Z,96.41
2017-12-11T00:19:13.924Z,96.88
2017-12-11T00:21:41.484Z,97.33
2017-12-11T00:24:09.135Z,97.33
2017-12-11T00:26:36.692Z,96.71
2017-12-11T00:29:04.268Z,96.83
2017-12-11T00:31:31.817Z,96.46
2017-12-11T00:33:59.403Z,96.58
2017-12-11T00:36:26.992Z,96.46
2017-12-11T00:38:54.577Z,96.08
2017-12-11T00:41:22.226Z,96.85
2017-12-11T00:43:49.782Z,96.67
2017-12-11T00:46:17.367Z,96.36
2017-12-11T00:48:44.918Z,95.74
2017-12-11T00:51:12.510Z,95.93
2017-12-11T00:53:40.131Z,95.78
2017-12-11T00:56:07.732Z,96.25
2017-12-11T00:58:35.388Z,97.05
2017-12-11T01:01:02.932Z,97.11
2017-12-11T01:03:30.481Z,97.37
2017-12-11T01:05:58.030Z,97.62
2017-12-11T01:10:59.384Z,97.29
2017-12-11T01:13:26.936Z,98.09
2017-12-11T01:15:54.489Z,97.96
2017-12-11T01:18:22.121Z,97.21
2017-12-11T01:20:49.674Z,97.32
2017-12-11T01:23:17.241Z,98.14
2017-12-11T01:25:44.909Z,98.05
2017-12-11T01:28:12.471Z,97.77
2017-12-11T01:30:40.019Z,98.13
2017-12-11T01:33:07.597Z,98.35
2017-12-11T01:35:35.189Z,98.59
2017-12-11T01:38:02.737Z,97.84
2017-12-11T01:40:30.336Z,98.14
2017-12-11T01:42:57.896Z,97.50
2017-12-11T01:45:25.498Z,97.15
2017-12-11T01:47:53.048Z,97.28
2017-12-11T01:50:20.621Z,98.29
2017-12-11T01:52:48.214Z,98.73
2017-12-11T01:55:15.777Z,99.32
2017-12-11T01:57:43.403Z,99.54
2017-12-11T02:00:10.961Z,99.30
2017-12-11T02:02:38.592Z,99.08
2017-12-11T02:05:06.147Z,99.00
2017-12-11T02:07:34.674Z,98.58
2017-12-11T02:10:02.335Z,98.72
2017-12-11T02:12:29.991Z,98.49
2017-12-11T02:14:57.606Z,98.36
2017-12-11T02:17:25.211Z,98.53
2017-12-11T02:19:52.778Z,98.65
2017-12-11T02:22:20.436Z,98.29
2017-12-11T02:24:47.986Z,97.93
2017-12-11T02:27:15.559Z,97.51
2017-12-11T02:29:43.120Z,97.62
2017-12-11T02:32:10.784Z,97.56
2017-12-11T02:34:38.370Z,97.25
2017-12-11T02:37:05.936Z,97.36
2017-12-11T02:39:33.484Z,97.10
2017-12-11T02:42:01.078Z,96.85
2017-12-11T02:44:28.688Z,96.91
2017-12-11T02:46:56.281Z,97.08
2017-12-11T02:49:23.832Z,96.90
2017-12-11T02:51:51.473Z,97.08
2017-12-11T02:54:19.142Z,96.98
2017-12-11T02:56:46.729Z,96.54
2017-12-11T02:59:14.279Z,96.82
2017-12-11T03:01:41.925Z,96.38
2017-12-11T03:04:09.505Z,96.45
2017-12-11T03:06:37.065Z,96.49
2017-12-11T03:09:04.701Z,96.50
2017-12-11T03:11:32.281Z,95.99
2017-12-11T03:13:59.934Z,95.81
2017-12-11T03:16:27.589Z,95.54
2017-12-11T03:18:55.152Z,95.89
2017-12-11T03:21:22.809Z,95.43
2017-12-11T03:23:50.355Z,95.09
2017-12-11T03:26:17.938Z,94.35
2017-12-11T03:28:45.600Z,94.58
2017-12-11T03:31:13.199Z,94.72
2017-12-11T03:33:40.746Z,94.62
2017-12-11T03:36:08.296Z,94.54
2017-12-11T03:38:35.839Z,94.39
2017-12-11T03:41:03.388Z,94.19
2017-12-11T03:43:30.967Z,94.13
2017-12-11T03:45:58.511Z,94.34
2017-12-11T03:48:26.094Z,94.06
2017-12-11T03:50:53.650Z,93.84
2017-12-11T03:53:21.235Z,93.75
2017-12-11T03:55:48.868Z,94.35
2017-12-11T03:58:16.448Z,93.37
2017-12-11T04:00:44.049Z,92.30
2017-12-11T04:03:11.600Z,91.89
2017-12-11T04:05:39.148Z,91.15
2017-12-11T04:08:06.780Z,91.49
2017-12-11T04:10:34.328Z,91.83
2017-12-11T04:13:01.878Z,92.53
2017-12-11T04:15:29.552Z,91.85
2017-12-11T04:17:57.100Z,91.81
2017-12-11T04:20:24.648Z,92.88
2017-12-11T04:22:52.198Z,92.19
2017-12-11T04:25:19.751Z,92.44
2017-12-11T04:27:47.304Z,92.61
2017-12-11T04:30:15.212Z,92.31
2017-12-11T04:32:42.760Z,92.49
2017-12-11T04:35:10.314Z,92.34
2017-12-11T04:37:37.861Z,92.97
2017-12-11T04:40:07.380Z,92.90
2017-12-11T04:42:35.020Z,92.92
2017-12-11T04:45:02.548Z,92.62
2017-12-11T04:47:30.101Z,92.46
2017-12-11T04:49:57.694Z,92.61
2017-12-11T04:52:25.248Z,92.53
2017-12-11T04:54:52.848Z,91.42
2017-12-11T04:57:20.437Z,90.08
2017-12-11T04:59:47.993Z,90.28
2017-12-11T05:02:15.569Z,90.25
2017-12-11T05:04:43.229Z,89.30
2017-12-11T05:07:10.892Z,88.46
2017-12-11T05:09:38.446Z,87.63
2017-12-11T05:12:05.993Z,86.55
2017-12-11T05:14:33.572Z,86.32
2017-12-11T05:17:01.126Z,86.04
2017-12-11T05:19:28.684Z,87.67
2017-12-11T05:21:56.255Z,86.25
2017-12-11T05:24:23.809Z,87.17
2017-12-11T05:26:51.353Z,86.55
2017-12-11T05:29:18.936Z,86.47
2017-12-11T05:31:46.517Z,86.28
2017-12-11T05:34:20.681Z,86.36
2017-12-11T05:36:48.296Z,85.69
2017-12-11T05:39:16.004Z,84.57
2017-12-11T05:41:43.581Z,84.19
2017-12-11T05:44:11.127Z,84.39
2017-12-11T05:46:38.680Z,84.61
2017-12-11T05:49:06.915Z,84.94
2017-12-11T05:51:35.714Z,84.31
2017-12-11T05:54:03.300Z,82.35
2017-12-11T05:56:30.864Z,83.87
2017-12-11T05:58:58.445Z,83.75
2017-12-11T06:01:26.000Z,83.43
2017-12-11T06:03:53.592Z,83.52
2017-12-11T06:06:21.212Z,82.01
2017-12-11T06:08:48.820Z,83.04
2017-12-11T06:11:16.482Z,84.15
2017-12-11T06:13:44.045Z,83.06
2017-12-11T06:16:11.701Z,82.85
2017-12-11T06:18:39.256Z,82.51
2017-12-11T06:21:07.030Z,82.55
2017-12-11T06:23:34.594Z,81.44
2017-12-11T06:26:02.188Z,82.48
2017-12-11T06:28:29.741Z,82.38
2017-12-11T06:30:57.336Z,83.30
2017-12-11T06:33:24.935Z,81.72
2017-12-11T06:35:52.508Z,82.70
2017-12-11T06:38:20.150Z,82.20
2017-12-11T06:40:47.701Z,83.52
2017-12-11T06:43:15.292Z,83.01
2017-12-11T06:45:42.880Z,81.95
2017-12-11T06:48:10.428Z,81.31
2017-12-11T06:50:38.024Z,81.57
2017-12-11T06:53:05.580Z,81.54
2017-12-11T06:55:33.164Z,82.04
2017-12-11T06:58:00.824Z,82.34
2017-12-11T07:00:28.373Z,81.67
2017-12-11T07:02:55.957Z,81.50
2017-12-11T07:05:23.556Z,82.35
2017-12-11T07:07:51.236Z,82.65
2017-12-11T07:10:18.858Z,82.85
2017-12-11T07:12:46.414Z,82.95
2017-12-11T07:15:13.979Z,82.61
2017-12-11T07:17:41.557Z,82.38
2017-12-11T07:20:09.109Z,81.87
2017-12-11T07:22:36.698Z,83.07
2017-12-11T07:25:04.329Z,83.33
2017-12-11T07:27:31.989Z,82.90
2017-12-11T07:29:59.553Z,83.91
2017-12-11T07:32:27.110Z,84.64
2017-12-11T07:34:54.669Z,84.88
2017-12-11T07:37:22.224Z,83.98
2017-12-11T07:39:49.775Z,82.90
2017-12-11T07:42:17.335Z,83.06
2017-12-11T07:44:44.896Z,83.27
2017-12-11T07:47:12.444Z,83.09
2017-12-11T07:49:40.027Z,83.76
2017-12-11T07:52:07.581Z,83.95
2017-12-11T07:54:35.157Z,83.65
2017-12-11T07:57:02.709Z,83.85
2017-12-11T07:59:30.261Z,83.17
2017-12-11T08:01:57.848Z,83.94
2017-12-11T08:04:25.437Z,84.05
2017-12-11T08:06:54.146Z,84.73
2017-12-11T08:09:21.739Z,84.92
2017-12-11T08:11:49.294Z,84.45
2017-12-11T08:14:16.842Z,85.27
2017-12-11T08:16:44.442Z,85.64
2017-12-11T08:19:12.020Z,85.43
2017-12-11T08:21:39.578Z,85.63
2017-12-11T08:24:07.139Z,85.43
2017-12-11T08:26:34.694Z,85.61
2017-12-11T08:29:02.434Z,86.22
2017-12-11T08:31:30.053Z,86.59
2017-12-11T08:33:57.567Z,86.86
2017-12-11T08:36:25.128Z,85.87
2017-12-11T08:38:52.712Z,86.57
2017-12-11T08:41:20.271Z,86.75
2017-12-11T08:43:50.387Z,84.60
2017-12-11T08:46:17.967Z,85.19
2017-12-11T08:48:45.616Z,86.26
2017-12-11T08:51:13.207Z,86.21
2017-12-11T08:53:40.771Z,86.92
2017-12-11T08:56:08.369Z,87.86
2017-12-11T08:58:35.924Z,87.75
2017-12-11T09:01:03.520Z,88.01
2017-12-11T09:03:31.190Z,88.05
2017-12-11T09:06:02.400Z,85.81
2017-12-11T09:08:29.963Z,88.77
2017-12-11T09:10:57.621Z,88.70
2017-12-11T09:13:25.180Z,85.99
2017-12-11T09:15:52.773Z,87.31
2017-12-11T09:18:20.329Z,86.85
2017-12-11T09:20:47.923Z,85.30
2017-12-11T09:23:15.524Z,88.09
2017-12-11T09:25:43.080Z,87.91
2017-12-11T09:28:10.636Z,88.91
2017-12-11T09:30:38.200Z,87.16
2017-12-11T09:33:05.752Z,87.91
2017-12-11T09:35:33.336Z,87.80
2017-12-11T09:38:00.893Z,87.55
2017-12-11T09:40:28.481Z,87.12
2017-12-11T09:42:56.038Z,87.62
2017-12-11T09:45:24.465Z,88.18
2017-12-11T09:47:52.057Z,87.03
2017-12-11T09:50:19.656Z,87.10
2017-12-11T09:52:47.208Z,87.04
2017-12-11T09:55:14.768Z,87.82
2017-12-11T09:57:42.358Z,87.79
2017-12-11T10:00:12.170Z,88.16
2017-12-11T10:02:39.769Z,87.24
2017-12-11T10:05:07.356Z,86.35
2017-12-11T10:07:34.991Z,87.08
2017-12-11T10:10:02.573Z,85.67
2017-12-11T10:12:30.255Z,87.90
2017-12-11T10:14:57.858Z,86.70
2017-12-11T10:17:25.407Z,86.33
2017-12-11T10:19:53.000Z,85.32
2017-12-11T10:22:21.156Z,86.00
2017-12-11T10:24:49.476Z,87.17
2017-12-11T10:27:17.104Z,84.71
2017-12-11T10:29:44.663Z,83.00
2017-12-11T10:32:12.216Z,84.42
2017-12-11T10:34:39.896Z,84.66
2017-12-11T10:37:07.446Z,83.75
2017-12-11T10:39:35.036Z,82.32
2017-12-11T10:42:02.748Z,85.94
2017-12-11T10:44:30.308Z,85.14
2017-12-11T10:46:57.863Z,86.70
2017-12-11T10:49:25.412Z,86.32
2017-12-11T10:51:52.972Z,85.04
2017-12-11T10:54:20.524Z,83.01
2017-12-11T10:56:48.132Z,86.96
2017-12-11T10:59:15.723Z,85.64
2017-12-11T11:01:43.341Z,86.90
2017-12-11T11:04:11.050Z,87.24
2017-12-11T11:06:38.658Z,88.39
2017-12-11T11:09:06.261Z,89.49
2017-12-11T11:11:33.817Z,89.29
2017-12-11T11:14:01.373Z,89.44
2017-12-11T11:16:29.007Z,89.69
2017-12-11T11:18:56.604Z,89.18
2017-12-11T11:21:24.207Z,88.48
2017-12-11T11:23:51.819Z,88.45
2017-12-11T11:26:19.365Z,89.14
2017-12-11T11:28:47.228Z,88.70
2017-12-11T11:31:18.536Z,88.33
2017-12-11T11:33:47.955Z,88.07
2017-12-11T11:36:19.342Z,88.32
2017-12-11T11:38:58.381Z,89.29
2017-12-11T11:41:36.924Z,87.85
2017-12-11T11:44:07.947Z,88.88
2017-12-11T11:46:44.750Z,89.22
2017-12-11T11:49:15.741Z,87.77
2017-12-11T11:51:46.857Z,88.02
2017-12-11T11:54:19.328Z,88.04
2017-12-11T11:56:51.083Z,88.02
2017-12-11T11:59:18.817Z,88.13
2017-12-11T12:01:46.455Z,88.58
2017-12-11T12:04:14.641Z,87.71
2017-12-11T12:06:42.920Z,88.58
2017-12-11T12:09:10.957Z,89.50
2017-12-11T12:11:38.713Z,89.62
2017-12-11T12:14:06.288Z,88.20
2017-12-11T12:16:33.998Z,88.29
2017-12-11T12:19:01.558Z,88.57
2017-12-11T12:21:29.116Z,88.86
2017-12-11T12:23:56.681Z,88.70
2017-12-11T12:26:24.287Z,88.96
2017-12-11T12:28:51.844Z,89.54
2017-12-11T12:31:19.492Z,89.39
2017-12-11T12:33:47.054Z,90.51
2017-12-11T12:36:14.645Z,90.46
2017-12-11T12:38:42.522Z,89.76
2017-12-11T12:41:10.111Z,90.59
2017-12-11T12:43:37.678Z,90.38
2017-12-11T12:46:08.689Z,90.07
2017-12-11T12:48:36.349Z,90.30
2017-12-11T12:51:03.945Z,89.90
2017-12-11T12:53:32.613Z,90.54
2017-12-11T12:56:00.207Z,91.00
2017-12-11T12:58:27.853Z,91.42
2017-12-11T13:00:55.468Z,91.46
2017-12-11T13:03:23.064Z,91.50
2017-12-11T13:05:50.647Z,91.68
2017-12-11T13:08:18.253Z,92.48
2017-12-11T13:10:45.958Z,92.18
2017-12-11T13:13:14.962Z,92.71
2017-12-11T13:15:44.669Z,92.69
2017-12-11T13:18:12.427Z,93.50
2017-12-11T13:20:39.985Z,92.51
2017-12-11T13:23:08.136Z,92.53
2017-12-11T13:25:38.721Z,92.64
2017-12-11T13:28:07.874Z,92.22
2017-12-11T13:30:37.112Z,92.09
2017-12-11T13:33:06.165Z,91.86
2017-12-11T13:35:38.890Z,92.31
2017-12-11T13:38:07.121Z,91.80
2017-12-11T13:40:34.834Z,91.66
2017-12-11T13:43:02.851Z,91.79
2017-12-11T13:45:30.827Z,91.97
2017-12-11T13:47:59.481Z,92.58
2017-12-11T13:50:28.697Z,92.43
2017-12-11T13:52:58.109Z,92.61
2017-12-11T13:55:26.839Z,92.57
2017-12-11T13:57:54.925Z,92.68
2017-12-11T14:00:23.034Z,93.10
2017-12-11T14:02:51.195Z,93.29
2017-12-11T14:05:25.623Z,92.41
2017-12-11T14:07:57.154Z,92.70
2017-12-11T14:10:26.909Z,92.84
2017-12-11T14:18:19.048Z,92.92
2017-12-11T14:20:46.638Z,92.73
2017-12-11T14:23:14.348Z,93.47
2017-12-11T14:25:42.104Z,92.59
2017-12-11T14:28:09.669Z,92.77
2017-12-11T14:30:37.421Z,92.18
2017-12-11T14:33:05.208Z,92.33
2017-12-11T14:35:32.910Z,92.15
2017-12-11T14:38:00.681Z,92.18
2017-12-11T14:40:28.381Z,92.53
2017-12-11T14:42:56.001Z,92.72
2017-12-11T14:45:23.567Z,93.15
2017-12-11T14:47:51.134Z,92.93
2017-12-11T14:50:20.656Z,92.95
2017-12-11T14:52:48.222Z,93.04
2017-12-11T14:55:15.856Z,92.87
2017-12-11T14:57:43.428Z,92.64
2017-12-11T15:00:10.985Z,92.32
2017-12-11T15:02:38.540Z,92.60
2017-12-11T15:05:06.139Z,93.32
2017-12-11T15:07:33.732Z,92.28
2017-12-11T15:10:01.300Z,92.71
2017-12-11T15:12:28.896Z,92.70
2017-12-11T15:14:56.453Z,93.45
2017-12-11T15:17:24.044Z,93.62
2017-12-11T15:19:51.708Z,92.94
2017-12-11T15:22:19.305Z,92.88
2017-12-11T15:24:47.709Z,93.16
2017-12-11T15:27:15.270Z,93.37
2017-12-11T15:29:42.838Z,93.38
2017-12-11T15:32:10.398Z,93.16
2017-12-11T15:34:37.956Z,92.76
2017-12-11T15:37:05.552Z,92.27
2017-12-11T15:39:33.213Z,92.18
2017-12-11T15:42:00.873Z,92.94
2017-12-11T15:44:28.429Z,91.91
2017-12-11T15:46:56.189Z,92.74
2017-12-11T15:49:24.087Z,93.64
2017-12-11T15:51:51.838Z,93.85
2017-12-11T15:54:19.442Z,93.74
2017-12-11T15:56:47.002Z,93.75
2017-12-11T15:59:14.686Z,93.16
2017-12-11T16:01:42.280Z,93.85
2017-12-11T16:04:09.842Z,94.45
2017-12-11T16:06:37.514Z,93.66
2017-12-11T16:09:05.104Z,93.35
2017-12-11T16:11:32.730Z,93.69
2017-12-11T16:14:00.500Z,94.22
2017-12-11T16:16:28.056Z,93.95
2017-12-11T16:18:55.722Z,94.80
2017-12-11T16:21:23.278Z,94.67
2017-12-11T16:23:50.842Z,94.36
2017-12-11T16:26:18.396Z,94.55
2017-12-11T16:28:46.065Z,94.65
2017-12-11T16:31:13.619Z,94.45
2017-12-11T16:33:41.176Z,94.09
2017-12-11T16:36:08.912Z,95.73
2017-12-11T16:38:36.615Z,94.99
2017-12-11T16:41:04.282Z,94.83
2017-12-11T16:43:31.939Z,94.12
2017-12-11T16:45:59.613Z,94.71
2017-12-11T16:48:27.234Z,95.35
2017-12-11T16:50:54.836Z,95.06
2017-12-11T16:53:22.404Z,95.41
2017-12-11T16:55:49.970Z,96.29
2017-12-11T16:58:17.533Z,96.50
2017-12-11T17:00:45.104Z,96.05
2017-12-11T17:03:12.668Z,96.06
2017-12-11T17:05:40.234Z,96.06
2017-12-11T17:08:08.632Z,95.86
2017-12-11T17:10:44.548Z,96.19
2017-12-11T17:13:12.177Z,96.21
2017-12-11T17:15:39.847Z,96.56
2017-12-11T17:18:07.414Z,96.76
2017-12-11T17:20:36.000Z,97.17
2017-12-11T17:23:03.658Z,97.00
2017-12-11T17:25:31.324Z,96.77
2017-12-11T17:27:58.885Z,96.69
2017-12-11T17:30:26.557Z,96.45
2017-12-11T17:32:54.157Z,96.45
2017-12-11T17:35:21.714Z,96.23
2017-12-11T17:37:49.273Z,96.09
2017-12-11T17:40:17.825Z,96.12
2017-12-11T17:42:45.418Z,96.36
2017-12-11T17:45:13.036Z,96.21
2017-12-11T17:47:40.660Z,96.59
2017-12-11T17:50:08.260Z,96.69
2017-12-11T17:52:35.936Z,96.72
2017-12-11T17:55:03.605Z,96.85
2017-12-11T17:57:31.160Z,96.47
2017-12-11T17:59:58.758Z,96.79
2017-12-11T18:02:26.320Z,97.32
2017-12-11T18:04:53.915Z,97.14
2017-12-11T18:07:21.533Z,97.49
2017-12-11T18:09:49.143Z,97.45
2017-12-11T18:12:16.701Z,97.84
2017-12-11T18:14:44.308Z,98.03
2017-12-11T18:17:11.870Z,98.27
2017-12-11T18:19:39.507Z,97.86
2017-12-11T18:22:07.172Z,97.14
2017-12-11T18:24:34.733Z,97.34
2017-12-11T18:27:02.398Z,96.85
2017-12-11T18:29:29.964Z,96.92
2017-12-11T18:31:57.564Z,96.84
2017-12-11T18:34:25.184Z,97.35
2017-12-11T18:36:52.851Z,96.94
2017-12-11T18:39:20.446Z,97.07
2017-12-11T18:41:47.997Z,97.08
2017-12-11T18:44:15.593Z,97.18
2017-12-11T18:46:43.498Z,97.26
2017-12-11T18:49:11.060Z,97.46
2017-12-11T18:51:44.048Z,97.64
2017-12-11T18:54:12.925Z,97.40
2017-12-11T18:56:40.620Z,97.25
2017-12-11T18:59:08.229Z,97.13
2017-12-11T19:01:35.792Z,97.15
2017-12-11T19:04:03.656Z,97.20
2017-12-11T19:06:31.224Z,96.65
2017-12-11T19:08:58.818Z,96.83
2017-12-11T19:11:26.373Z,96.66
2017-12-11T19:13:54.014Z,96.23
2017-12-11T19:16:21.606Z,96.23
2017-12-11T19:18:49.226Z,96.67
2017-12-11T19:21:16.835Z,96.83
2017-12-11T19:23:44.436Z,96.89
2017-12-11T19:26:14.790Z,96.77
2017-12-11T19:28:42.421Z,97.29
2017-12-11T19:31:10.045Z,96.98
2017-12-11T19:33:37.872Z,96.43
2017-12-11T19:36:05.545Z,96.58
2017-12-11T19:38:33.152Z,96.58
2017-12-11T19:41:00.780Z,97.14
2017-12-11T19:43:28.524Z,96.65
2017-12-11T19:45:56.106Z,96.67
2017-12-11T19:48:23.670Z,96.54
2017-12-11T19:50:51.259Z,96.73
2017-12-11T19:53:18.812Z,96.64
2017-12-11T19:55:46.469Z,96.73
2017-12-11T19:58:14.078Z,96.53
2017-12-11T20:00:42.230Z,96.69
2017-12-11T20:03:09.869Z,96.79
2017-12-11T20:05:37.575Z,97.18
2017-12-11T20:08:05.215Z,97.57
2017-12-11T20:10:32.964Z,97.36
2017-12-11T20:13:00.582Z,97.28
2017-12-11T20:15:28.190Z,96.93
2017-12-11T20:17:55.766Z,96.76
2017-12-11T20:20:23.377Z,96.70
2017-12-11T20:22:50.942Z,96.98
2017-12-11T20:25:18.500Z,97.01
2017-12-11T20:27:46.276Z,97.02
2017-12-11T20:30:13.970Z,96.65
2017-12-11T20:32:41.570Z,96.37
2017-12-11T20:35:09.134Z,96.68
2017-12-11T20:37:36.697Z,96.52
2017-12-11T20:40:15.018Z,96.44
2017-12-11T20:42:43.669Z,96.32
2017-12-11T20:45:11.332Z,96.24
2017-12-11T20:47:38.938Z,96.07
2017-12-11T20:50:07.642Z,96.29
2017-12-11T20:52:35.380Z,96.40
2017-12-11T20:55:03.020Z,96.17
2017-12-11T20:57:36.651Z,96.62
2017-12-11T21:00:04.609Z,95.91
2017-12-11T21:02:32.361Z,95.68
2017-12-11T21:05:00.700Z,95.70
2017-12-11T21:07:28.293Z,96.28
2017-12-11T21:09:56.702Z,96.52
2017-12-11T21:12:24.900Z,96.58
2017-12-11T21:14:52.888Z,96.06
2017-12-11T21:17:20.901Z,96.76
2017-12-11T21:19:49.737Z,96.98
2017-12-11T21:22:18.550Z,96.62
2017-12-11T21:24:46.185Z,96.47
2017-12-11T21:27:14.541Z,96.91
2017-12-11T21:29:43.126Z,96.81
2017-12-11T21:32:11.590Z,96.27
2017-12-11T21:34:40.258Z,96.27
2017-12-11T21:37:08.626Z,96.18
2017-12-11T21:39:37.338Z,95.94
2017-12-11T21:42:07.095Z,95.68
2017-12-11T21:44:34.923Z,95.54
2017-12-11T21:47:03.285Z,96.16
2017-12-11T21:49:32.540Z,95.96
2017-12-11T21:52:01.158Z,96.15
2017-12-11T21:54:29.072Z,96.49
2017-12-11T21:56:56.871Z,96.67
2017-12-11T21:59:25.534Z,96.63
2017-12-11T22:01:53.288Z,96.59
2017-12-11T22:04:20.876Z,96.59
2017-12-11T22:06:49.428Z,96.16
2017-12-11T22:09:17.145Z,96.49
2017-12-11T22:11:44.734Z,96.72
2017-12-11T22:14:12.908Z,96.62
2017-12-11T22:16:40.495Z,96.78
2017-12-11T22:19:08.058Z,96.77
2017-12-11T22:21:35.627Z,97.00
2017-12-11T22:24:03.251Z,96.51
2017-12-11T22:26:30.901Z,96.43
2017-12-11T22:28:58.471Z,95.83
2017-12-11T22:31:26.125Z,96.21
2017-12-11T22:33:53.852Z,96.81
2017-12-11T22:36:21.411Z,97.17
2017-12-11T22:38:48.985Z,97.24
2017-12-11T22:41:16.636Z,97.50
2017-12-11T22:43:44.205Z,97.40
2017-12-11T22:46:11.756Z,97.26
2017-12-11T22:48:39.356Z,97.49
2017-12-11T22:51:06.921Z,97.59
2017-12-11T22:53:34.513Z,97.67
2017-12-11T22:56:02.145Z,97.89
2017-12-11T22:58:29.801Z,98.10
2017-12-11T23:00:57.470Z,98.22
2017-12-11T23:03:25.044Z,98.16
2017-12-11T23:05:52.660Z,98.05
2017-12-11T23:08:20.252Z,98.06
2017-12-11T23:10:47.824Z,97.54
2017-12-11T23:13:15.480Z,97.88
2017-12-11T23:15:43.045Z,97.71
2017-12-11T23:18:10.696Z,97.36
2017-12-11T23:20:38.255Z,97.28
2017-12-11T23:23:05.853Z,97.84
2017-12-11T23:25:33.413Z,98.10
2017-12-11T23:28:00.976Z,97.74
2017-12-11T23:30:28.565Z,97.92
2017-12-11T23:32:56.125Z,97.90
2017-12-11T23:35:23.808Z,97.86
2017-12-11T23:37:51.404Z,97.76
2017-12-11T23:40:18.962Z,98.12
2017-12-11T23:42:46.613Z,97.90
2017-12-11T23:45:14.177Z,97.87
2017-12-11T23:47:41.746Z,97.83
2017-12-11T23:50:09.318Z,97.21
2017-12-11T23:52:36.877Z,98.04
2017-12-11T23:55:04.440Z,97.75
2017-12-11T23:57:32.000Z,97.28
2017-12-11T23:59:59.568Z,97.59
